createdAt,value
2022-11-24T00:00:48.893Z,6.46
2022-11-24T00:01:48.882Z,6.48
2022-11-24T00:02:48.764Z,6.41
2022-11-24T00:03:48.768Z,6.54
2022-11-24T00:04:48.736Z,6.51
2022-11-24T00:05:48.797Z,6.53
2022-11-24T00:06:48.744Z,6.48
2022-11-24T00:07:48.823Z,6.51
2022-11-24T00:08:48.721Z,6.63
2022-11-24T00:09:48.735Z,6.65
2022-11-24T00:10:48.694Z,6.58
2022-11-24T00:11:48.627Z,6.58
2022-11-24T00:12:48.634Z,6.54
2022-11-24T00:13:48.613Z,6.61
2022-11-24T00:14:48.569Z,6.68
2022-11-24T00:15:48.560Z,6.58
2022-11-24T00:17:14.382Z,6.65
2022-11-24T00:17:48.526Z,6.73
2022-11-24T00:18:48.568Z,6.77
2022-11-24T00:19:48.538Z,6.80
2022-11-24T00:20:48.610Z,6.69
2022-11-24T00:21:48.607Z,6.71
2022-11-24T00:22:48.731Z,6.83
2022-11-24T00:23:48.592Z,6.83
2022-11-24T00:24:48.749Z,6.81
2022-11-24T00:25:48.577Z,6.90
2022-11-24T00:26:48.714Z,6.77
2022-11-24T00:27:48.651Z,6.94
2022-11-24T00:28:48.567Z,6.90
2022-11-24T00:29:48.565Z,6.86
2022-11-24T00:30:48.695Z,6.90
2022-11-24T00:31:48.601Z,6.89
2022-11-24T00:32:48.557Z,6.99
2022-11-24T00:33:48.629Z,6.95
2022-11-24T00:34:48.540Z,7.04
2022-11-24T00:35:48.513Z,7.01
2022-11-24T00:36:48.544Z,7.07
2022-11-24T00:37:48.427Z,6.98
2022-11-24T00:38:48.428Z,7.05
2022-11-24T00:39:48.506Z,7.05
2022-11-24T00:40:48.414Z,7.12
2022-11-24T00:41:48.412Z,7.15
2022-11-24T00:42:48.430Z,7.09
2022-11-24T00:43:48.383Z,7.05
2022-11-24T00:44:49.525Z,7.08
2022-11-24T00:45:49.494Z,6.99
2022-11-24T00:46:48.516Z,7.04
2022-11-24T00:47:48.542Z,7.13
2022-11-24T00:48:48.471Z,7.07
2022-11-24T00:49:48.489Z,6.95
2022-11-24T00:50:48.444Z,7.04
2022-11-24T00:51:48.455Z,6.95
2022-11-24T00:52:48.434Z,6.90
2022-11-24T00:53:48.383Z,6.87
2022-11-24T00:54:48.371Z,6.91
2022-11-24T00:55:48.478Z,6.98
2022-11-24T00:56:48.366Z,6.95
2022-11-24T00:57:49.349Z,6.84
2022-11-24T00:58:48.361Z,6.83
2022-11-24T00:59:48.355Z,6.84
2022-11-24T01:00:48.383Z,6.68
2022-11-24T01:01:48.404Z,6.79
2022-11-24T01:02:48.293Z,6.79
2022-11-24T01:03:48.326Z,6.80
2022-11-24T01:04:48.381Z,6.97
2022-11-24T01:05:48.332Z,6.99
2022-11-24T01:06:48.321Z,6.99
2022-11-24T01:07:48.261Z,6.94
2022-11-24T01:08:48.352Z,6.90
2022-11-24T01:09:48.225Z,6.95
2022-11-24T01:10:48.210Z,7.05
2022-11-24T01:11:48.274Z,6.91
2022-11-24T01:12:48.351Z,7.01
2022-11-24T01:13:48.244Z,7.04
2022-11-24T01:14:48.262Z,7.12
2022-11-24T01:15:48.257Z,7.04
2022-11-24T01:17:08.750Z,7.05
2022-11-24T01:17:48.136Z,7.01
2022-11-24T01:18:48.226Z,7.04
2022-11-24T01:19:48.204Z,7.08
2022-11-24T01:20:48.260Z,7.02
2022-11-24T01:21:48.246Z,6.99
2022-11-24T01:22:48.462Z,7.04
2022-11-24T01:23:48.222Z,7.04
2022-11-24T01:24:48.210Z,7.09
2022-11-24T01:25:48.253Z,7.07
2022-11-24T01:26:48.155Z,7.01
2022-11-24T01:27:48.101Z,7.02
2022-11-24T01:28:48.188Z,7.13
2022-11-24T01:29:48.098Z,7.12
2022-11-24T01:30:48.178Z,7.12
2022-11-24T01:31:47.992Z,7.12
2022-11-24T01:32:48.091Z,7.22
2022-11-24T01:33:48.074Z,7.23
2022-11-24T01:34:48.142Z,7.20
2022-11-24T01:35:48.185Z,7.13
2022-11-24T01:36:48.078Z,7.23
2022-11-24T01:37:48.061Z,7.26
2022-11-24T01:38:48.128Z,7.31
2022-11-24T01:39:48.109Z,7.29
2022-11-24T01:40:48.067Z,7.34
2022-11-24T01:41:48.069Z,7.27
2022-11-24T01:42:48.087Z,7.44
2022-11-24T01:43:48.020Z,7.35
2022-11-24T01:44:48.093Z,7.40
2022-11-24T01:45:48.128Z,7.42
2022-11-24T01:46:48.015Z,7.41
2022-11-24T01:47:47.936Z,7.35
2022-11-24T01:48:47.936Z,7.22
2022-11-24T01:49:47.989Z,7.37
2022-11-24T01:50:47.931Z,7.41
2022-11-24T01:51:47.886Z,7.26
2022-11-24T01:52:47.924Z,7.29
2022-11-24T01:53:48.088Z,7.34
2022-11-24T01:54:47.976Z,7.29
2022-11-24T01:55:48.022Z,7.26
2022-11-24T01:56:48.066Z,7.22
2022-11-24T01:57:48.060Z,7.15
2022-11-24T01:58:48.061Z,7.08
2022-11-24T01:59:47.864Z,7.17
2022-11-24T02:00:48.050Z,7.16
2022-11-24T02:01:48.021Z,7.17
2022-11-24T02:02:47.857Z,7.20
2022-11-24T02:03:47.954Z,7.15
2022-11-24T02:04:47.965Z,7.22
2022-11-24T02:05:47.905Z,7.05
2022-11-24T02:06:47.935Z,7.15
2022-11-24T02:07:47.871Z,7.04
2022-11-24T02:08:47.760Z,7.16
2022-11-24T02:09:47.899Z,7.02
2022-11-24T02:10:47.905Z,7.04
2022-11-24T02:11:47.912Z,7.12
2022-11-24T02:12:47.851Z,7.13
2022-11-24T02:13:47.861Z,7.05
2022-11-24T02:14:47.860Z,7.08
2022-11-24T02:15:47.864Z,7.05
2022-11-24T02:16:47.824Z,7.13
2022-11-24T02:17:47.869Z,7.04
2022-11-24T02:18:47.887Z,7.13
2022-11-24T02:19:47.874Z,7.13
2022-11-24T02:20:47.831Z,7.13
2022-11-24T02:21:47.886Z,7.02
2022-11-24T02:22:47.975Z,7.08
2022-11-24T02:23:47.884Z,7.07
2022-11-24T02:24:47.765Z,7.08
2022-11-24T02:25:47.712Z,7.01
2022-11-24T02:26:47.695Z,6.94
2022-11-24T02:27:53.544Z,6.89
2022-11-24T02:28:49.720Z,6.86
2022-11-24T02:29:47.651Z,6.87
2022-11-24T02:30:47.698Z,6.87
2022-11-24T02:31:47.668Z,6.94
2022-11-24T02:32:47.668Z,6.81
2022-11-24T02:33:47.699Z,6.83
2022-11-24T02:34:47.610Z,6.91
2022-11-24T02:35:47.702Z,6.90
2022-11-24T02:36:47.697Z,6.81
2022-11-24T02:38:01.572Z,6.81
2022-11-24T02:38:47.613Z,6.72
2022-11-24T02:39:47.737Z,6.71
2022-11-24T02:40:47.715Z,6.84
2022-11-24T02:42:08.731Z,6.76
2022-11-24T02:42:47.579Z,6.77
2022-11-24T02:43:47.644Z,6.66
2022-11-24T02:44:47.779Z,6.69
2022-11-24T02:45:47.559Z,6.77
2022-11-24T02:46:47.764Z,6.58
2022-11-24T02:47:47.659Z,6.79
2022-11-24T02:48:47.551Z,6.69
2022-11-24T02:49:47.578Z,6.77
2022-11-24T02:50:47.540Z,6.79
2022-11-24T02:51:47.562Z,6.72
2022-11-24T02:52:47.519Z,6.76
2022-11-24T02:53:47.699Z,6.79
2022-11-24T02:54:47.603Z,6.73
2022-11-24T02:55:47.750Z,6.77
2022-11-24T02:56:47.557Z,6.69
2022-11-24T02:57:47.584Z,6.73
2022-11-24T02:58:48.430Z,6.68
2022-11-24T02:59:47.528Z,6.66
2022-11-24T03:00:47.579Z,6.76
2022-11-24T03:01:47.534Z,6.69
2022-11-24T03:02:47.579Z,6.71
2022-11-24T03:03:47.535Z,6.66
2022-11-24T03:04:47.529Z,6.71
2022-11-24T03:05:47.568Z,6.65
2022-11-24T03:06:47.570Z,6.73
2022-11-24T03:07:47.546Z,6.72
2022-11-24T03:08:47.477Z,6.68
2022-11-24T03:09:47.397Z,6.77
2022-11-24T03:10:47.452Z,6.65
2022-11-24T03:11:47.450Z,6.62
2022-11-24T03:12:47.520Z,6.68
2022-11-24T03:13:47.362Z,6.63
2022-11-24T03:14:47.350Z,6.62
2022-11-24T03:15:47.412Z,6.68
2022-11-24T03:16:47.329Z,6.63
2022-11-24T03:17:47.438Z,6.54
2022-11-24T03:18:47.341Z,6.50
2022-11-24T03:19:47.311Z,6.50
2022-11-24T03:20:47.406Z,6.54
2022-11-24T03:21:47.427Z,6.47
2022-11-24T03:22:47.304Z,6.48
2022-11-24T03:23:47.654Z,6.56
2022-11-24T03:24:47.382Z,6.54
2022-11-24T03:25:47.265Z,6.50
2022-11-24T03:26:47.405Z,6.51
2022-11-24T03:27:47.455Z,6.58
2022-11-24T03:28:47.284Z,6.53
2022-11-24T03:29:47.344Z,6.65
2022-11-24T03:30:47.449Z,6.51
2022-11-24T03:31:47.236Z,6.54
2022-11-24T03:32:47.422Z,6.51
2022-11-24T03:33:47.397Z,6.54
2022-11-24T03:34:47.291Z,6.59
2022-11-24T03:35:47.225Z,6.66
2022-11-24T03:36:47.222Z,6.66
2022-11-24T03:37:47.201Z,6.62
2022-11-24T03:38:47.260Z,6.61
2022-11-24T03:39:47.248Z,6.65
2022-11-24T03:40:47.203Z,6.69
2022-11-24T03:41:47.137Z,6.61
2022-11-24T03:42:47.290Z,6.76
2022-11-24T03:44:07.222Z,6.76
2022-11-24T03:44:47.139Z,6.81
2022-11-24T03:45:47.307Z,6.79
2022-11-24T03:46:47.232Z,6.87
2022-11-24T03:47:47.292Z,6.91
2022-11-24T03:48:47.250Z,6.95
2022-11-24T03:49:47.106Z,6.91
2022-11-24T03:50:47.240Z,6.95
2022-11-24T03:51:47.356Z,6.95
2022-11-24T03:52:47.079Z,6.84
2022-11-24T03:53:47.246Z,6.84
2022-11-24T03:54:47.180Z,6.89
2022-11-24T03:55:47.183Z,6.83
2022-11-24T03:56:47.203Z,7.01
2022-11-24T03:57:47.124Z,6.84
2022-11-24T03:58:47.056Z,6.76
2022-11-24T03:59:47.193Z,6.68
2022-11-24T04:00:47.383Z,6.79
2022-11-24T04:01:47.103Z,6.81
2022-11-24T04:02:47.084Z,6.83
2022-11-24T04:03:47.097Z,6.80
2022-11-24T04:04:49.697Z,6.84
2022-11-24T04:05:48.147Z,6.86
2022-11-24T04:06:47.060Z,6.77
2022-11-24T04:07:47.045Z,6.86
2022-11-24T04:08:47.092Z,6.77
2022-11-24T04:09:47.083Z,6.84
2022-11-24T04:10:47.045Z,6.79
2022-11-24T04:11:47.170Z,6.86
2022-11-24T04:12:47.034Z,6.84
2022-11-24T04:13:46.941Z,6.79
2022-11-24T04:14:47.095Z,6.76
2022-11-24T04:15:47.101Z,6.90
2022-11-24T04:16:46.970Z,6.87
2022-11-24T04:17:47.070Z,6.90
2022-11-24T04:18:47.123Z,6.97
2022-11-24T04:19:46.850Z,6.98
2022-11-24T04:20:46.950Z,6.91
2022-11-24T04:21:47.019Z,7.04
2022-11-24T04:22:46.918Z,7.01
2022-11-24T04:23:49.932Z,6.97
2022-11-24T04:24:46.952Z,6.98
2022-11-24T04:25:46.895Z,7.04
2022-11-24T04:26:46.840Z,7.01
2022-11-24T04:27:46.982Z,7.04
2022-11-24T04:28:46.869Z,7.02
2022-11-24T04:29:46.960Z,7.05
2022-11-24T04:30:46.879Z,7.02
2022-11-24T04:31:46.919Z,7.07
2022-11-24T04:32:48.876Z,7.17
2022-11-24T04:33:46.839Z,7.08
2022-11-24T04:34:46.808Z,7.12
2022-11-24T04:35:46.951Z,7.13
2022-11-24T04:36:46.889Z,7.07
2022-11-24T04:37:46.918Z,7.24
2022-11-24T04:39:24.331Z,7.16
2022-11-24T04:39:47.947Z,7.19
2022-11-24T04:40:46.775Z,7.20
2022-11-24T04:41:46.949Z,7.16
2022-11-24T04:42:49.168Z,7.22
2022-11-24T04:43:47.034Z,7.23
2022-11-24T04:44:46.920Z,7.19
2022-11-24T04:45:46.861Z,7.24
2022-11-24T04:46:46.896Z,7.24
2022-11-24T04:47:46.905Z,7.24
2022-11-24T04:48:46.795Z,7.31
2022-11-24T04:49:46.801Z,7.20
2022-11-24T04:50:46.849Z,7.27
2022-11-24T04:51:46.697Z,7.22
2022-11-24T04:52:46.755Z,7.31
2022-11-24T04:53:46.717Z,7.34
2022-11-24T04:54:46.739Z,7.32
2022-11-24T04:55:46.774Z,7.29
2022-11-24T04:56:46.696Z,7.23
2022-11-24T04:57:46.645Z,7.12
2022-11-24T04:58:46.743Z,7.22
2022-11-24T04:59:46.720Z,7.23
2022-11-24T05:00:46.877Z,7.12
2022-11-24T05:01:46.848Z,7.23
2022-11-24T05:02:46.647Z,7.34
2022-11-24T05:03:47.789Z,7.20
2022-11-24T05:04:46.808Z,7.26
2022-11-24T05:05:46.682Z,7.15
2022-11-24T05:06:46.809Z,7.16
2022-11-24T05:07:47.747Z,7.19
2022-11-24T05:08:46.552Z,7.02
2022-11-24T05:09:59.620Z,6.95
2022-11-24T05:10:47.652Z,7.02
2022-11-24T05:11:46.600Z,7.01
2022-11-24T05:12:51.138Z,7.05
2022-11-24T05:13:47.641Z,7.12
2022-11-24T05:14:46.537Z,7.19
2022-11-24T05:15:46.695Z,7.05
2022-11-24T05:16:46.682Z,7.07
2022-11-24T05:17:46.532Z,7.15
2022-11-24T05:18:46.743Z,7.07
2022-11-24T05:19:46.629Z,7.05
2022-11-24T05:20:46.535Z,7.02
2022-11-24T05:21:46.649Z,7.01
2022-11-24T05:22:46.594Z,6.98
2022-11-24T05:23:46.554Z,7.02
2022-11-24T05:24:47.623Z,6.90
2022-11-24T05:25:47.929Z,7.05
2022-11-24T05:26:47.515Z,6.95
2022-11-24T05:27:46.489Z,6.84
2022-11-24T05:28:46.453Z,6.98
2022-11-24T05:29:46.455Z,6.95
2022-11-24T05:30:46.606Z,6.91
2022-11-24T05:31:46.473Z,6.91
2022-11-24T05:32:46.718Z,6.99
2022-11-24T05:33:46.437Z,6.95
2022-11-24T05:34:46.436Z,6.97
2022-11-24T05:35:46.472Z,6.95
2022-11-24T05:36:46.455Z,6.91
2022-11-24T05:37:46.529Z,6.91
2022-11-24T05:38:46.358Z,6.95
2022-11-24T05:39:46.515Z,6.99
2022-11-24T05:40:46.490Z,6.89
2022-11-24T05:41:46.379Z,6.80
2022-11-24T05:42:48.011Z,6.80
2022-11-24T05:43:47.534Z,6.84
2022-11-24T05:44:46.360Z,6.83
2022-11-24T05:45:46.415Z,6.81
2022-11-24T05:46:46.533Z,6.73
2022-11-24T05:47:46.326Z,6.69
2022-11-24T05:48:46.489Z,6.71
2022-11-24T05:49:46.417Z,6.66
2022-11-24T05:50:46.297Z,6.66
2022-11-24T05:51:46.369Z,6.69
2022-11-24T05:52:46.512Z,6.54
2022-11-24T05:53:46.308Z,6.56
2022-11-24T05:54:46.551Z,6.65
2022-11-24T05:55:46.369Z,6.63
2022-11-24T05:56:46.285Z,6.56
2022-11-24T05:57:46.266Z,6.56
2022-11-24T05:58:46.244Z,6.54
2022-11-24T05:59:46.289Z,6.62
2022-11-24T06:00:46.278Z,6.59
2022-11-24T06:01:46.405Z,6.47
2022-11-24T06:02:47.340Z,6.61
2022-11-24T06:03:46.234Z,6.54
2022-11-24T06:04:46.262Z,6.47
2022-11-24T06:05:46.317Z,6.53
2022-11-24T06:06:46.239Z,6.54
2022-11-24T06:07:46.311Z,6.50
2022-11-24T06:08:46.242Z,6.53
2022-11-24T06:09:46.207Z,6.56
2022-11-24T06:10:46.307Z,6.58
2022-11-24T06:11:46.314Z,6.66
2022-11-24T06:12:46.230Z,6.63
2022-11-24T06:13:46.431Z,6.61
2022-11-24T06:14:46.257Z,6.51
2022-11-24T06:15:46.342Z,6.68
2022-11-24T06:16:46.337Z,6.58
2022-11-24T06:17:46.156Z,6.71
2022-11-24T06:18:46.259Z,6.83
2022-11-24T06:19:46.203Z,6.83
2022-11-24T06:20:57.608Z,6.77
2022-11-24T06:21:53.659Z,6.79
2022-11-24T06:22:46.253Z,6.84
2022-11-24T06:23:46.075Z,6.89
2022-11-24T06:24:46.221Z,6.84
2022-11-24T06:25:50.177Z,6.91
2022-11-24T06:26:48.079Z,6.97
2022-11-24T06:27:46.144Z,6.86
2022-11-24T06:28:47.172Z,6.79
2022-11-24T06:29:46.074Z,6.94
2022-11-24T06:30:46.193Z,6.97
2022-11-24T06:31:46.177Z,6.90
2022-11-24T06:32:49.299Z,6.91
2022-11-24T06:33:47.163Z,6.91
2022-11-24T06:34:46.117Z,6.94
2022-11-24T06:35:45.984Z,6.79
2022-11-24T06:36:46.000Z,6.86
2022-11-24T06:37:46.023Z,6.90
2022-11-24T06:38:46.027Z,6.81
2022-11-24T06:39:45.975Z,6.91
2022-11-24T06:40:48.775Z,6.89
2022-11-24T06:41:45.945Z,6.77
2022-11-24T06:42:45.921Z,6.86
2022-11-24T06:43:45.970Z,6.87
2022-11-24T06:44:45.880Z,6.79
2022-11-24T06:45:46.103Z,6.89
2022-11-24T06:46:46.156Z,6.76
2022-11-24T06:47:45.907Z,6.83
2022-11-24T06:48:46.046Z,6.84
2022-11-24T06:49:46.007Z,6.87
2022-11-24T06:50:45.986Z,6.98
2022-11-24T06:51:45.935Z,6.91
2022-11-24T06:52:45.998Z,6.90
2022-11-24T06:53:45.976Z,6.86
2022-11-24T06:54:46.044Z,6.87
2022-11-24T06:55:45.976Z,6.91
2022-11-24T06:56:45.872Z,6.94
2022-11-24T06:57:45.945Z,6.97
2022-11-24T06:58:45.930Z,6.98
2022-11-24T06:59:45.861Z,6.94
2022-11-24T07:00:45.918Z,6.95
2022-11-24T07:01:45.942Z,6.91
2022-11-24T07:02:46.323Z,6.91
2022-11-24T07:03:46.899Z,6.90
2022-11-24T07:04:45.816Z,7.02
2022-11-24T07:05:45.837Z,6.99
2022-11-24T07:06:46.482Z,6.95
2022-11-24T07:07:45.831Z,6.98
2022-11-24T07:08:45.840Z,7.07
2022-11-24T07:09:45.756Z,6.91
2022-11-24T07:10:45.755Z,6.94
2022-11-24T07:11:45.784Z,6.89
2022-11-24T07:12:45.713Z,6.91
2022-11-24T07:13:45.763Z,6.99
2022-11-24T07:14:45.814Z,6.91
2022-11-24T07:15:45.772Z,7.02
2022-11-24T07:16:45.915Z,7.04
2022-11-24T07:17:45.766Z,7.04
2022-11-24T07:18:45.799Z,7.02
2022-11-24T07:19:45.744Z,6.99
2022-11-24T07:20:45.757Z,6.91
2022-11-24T07:21:45.796Z,6.89
2022-11-24T07:22:45.786Z,7.04
2022-11-24T07:23:45.713Z,6.91
2022-11-24T07:24:45.890Z,6.89
2022-11-24T07:25:45.756Z,6.98
2022-11-24T07:26:45.694Z,6.94
2022-11-24T07:27:45.727Z,7.02
2022-11-24T07:28:45.813Z,7.04
2022-11-24T07:29:45.628Z,7.13
2022-11-24T07:30:45.603Z,7.15
2022-11-24T07:31:45.676Z,7.16
2022-11-24T07:32:45.731Z,7.16
2022-11-24T07:33:45.613Z,7.09
2022-11-24T07:34:45.576Z,7.15
2022-11-24T07:35:45.786Z,7.17
2022-11-24T07:36:45.649Z,7.27
2022-11-24T07:37:46.916Z,7.22
2022-11-24T07:38:47.032Z,7.31
2022-11-24T07:39:45.950Z,7.27
2022-11-24T07:40:45.575Z,7.32
2022-11-24T07:41:45.579Z,7.27
2022-11-24T07:42:45.585Z,7.37
2022-11-24T07:43:45.639Z,7.38
2022-11-24T07:44:45.623Z,7.42
2022-11-24T07:45:45.682Z,7.50
2022-11-24T07:46:45.579Z,7.47
2022-11-24T07:47:45.619Z,7.44
2022-11-24T07:48:45.617Z,7.49
2022-11-24T07:49:45.639Z,7.47
2022-11-24T07:50:46.526Z,7.55
2022-11-24T07:51:45.581Z,7.63
2022-11-24T07:52:45.489Z,7.55
2022-11-24T07:53:45.414Z,7.59
2022-11-24T07:54:45.583Z,7.59
2022-11-24T07:55:45.514Z,7.60
2022-11-24T07:56:45.591Z,7.62
2022-11-24T07:57:45.510Z,7.62
2022-11-24T07:58:49.784Z,7.56
2022-11-24T07:59:47.568Z,7.55
2022-11-24T08:00:45.496Z,7.59
2022-11-24T08:01:45.563Z,7.66
2022-11-24T08:02:45.999Z,7.55
2022-11-24T08:03:45.542Z,7.75
2022-11-24T08:04:45.501Z,7.59
2022-11-24T08:06:16.177Z,7.59
2022-11-24T08:06:47.751Z,7.63
2022-11-24T08:07:46.538Z,7.63
2022-11-24T08:08:45.497Z,7.56
2022-11-24T08:09:45.449Z,7.66
2022-11-24T08:10:45.600Z,7.63
2022-11-24T08:11:45.441Z,7.59
2022-11-24T08:12:45.341Z,7.58
2022-11-24T08:13:45.323Z,7.53
2022-11-24T08:14:45.375Z,7.58
2022-11-24T08:15:45.424Z,7.62
2022-11-24T08:16:45.327Z,7.60
2022-11-24T08:17:45.282Z,7.63
2022-11-24T08:18:45.305Z,7.63
2022-11-24T08:19:45.303Z,7.55
2022-11-24T08:20:45.284Z,7.60
2022-11-24T08:21:45.338Z,7.56
2022-11-24T08:22:45.340Z,7.71
2022-11-24T08:23:45.355Z,7.79
2022-11-24T08:24:45.311Z,7.81
2022-11-24T08:25:45.360Z,7.77
2022-11-24T08:26:45.407Z,7.75
2022-11-24T08:27:45.263Z,7.74
2022-11-24T08:28:45.244Z,7.74
2022-11-24T08:29:45.245Z,7.75
2022-11-24T08:30:45.332Z,7.72
2022-11-24T08:31:45.421Z,7.75
2022-11-24T08:32:45.338Z,7.79
2022-11-24T08:33:45.384Z,7.78
2022-11-24T08:34:45.292Z,7.79
2022-11-24T08:35:45.398Z,7.82
2022-11-24T08:36:49.341Z,7.87
2022-11-24T08:37:46.602Z,7.78
2022-11-24T08:38:45.197Z,7.81
2022-11-24T08:39:46.299Z,7.77
2022-11-24T08:40:45.128Z,7.77
2022-11-24T08:41:45.149Z,7.84
2022-11-24T08:42:45.125Z,7.94
2022-11-24T08:43:45.268Z,7.90
2022-11-24T08:44:45.239Z,7.94
2022-11-24T08:45:45.226Z,7.87
2022-11-24T08:46:45.202Z,7.97
2022-11-24T08:47:45.172Z,7.97
2022-11-24T08:48:45.178Z,8.00
2022-11-24T08:49:45.153Z,8.12
2022-11-24T08:50:45.120Z,8.04
2022-11-24T08:51:45.126Z,8.10
2022-11-24T08:52:45.170Z,8.12
2022-11-24T08:53:45.145Z,8.17
2022-11-24T08:54:45.182Z,8.14
2022-11-24T08:55:45.241Z,8.07
2022-11-24T08:56:45.001Z,8.29
2022-11-24T08:57:45.106Z,8.20
2022-11-24T08:58:45.064Z,8.22
2022-11-24T08:59:45.027Z,8.29
2022-11-24T09:00:45.017Z,8.30
2022-11-24T09:01:45.059Z,8.30
2022-11-24T09:02:44.985Z,8.26
2022-11-24T09:03:50.082Z,8.42
2022-11-24T09:04:47.046Z,8.35
2022-11-24T09:05:53.003Z,8.39
2022-11-24T09:06:47.021Z,8.47
2022-11-24T09:07:45.009Z,8.48
2022-11-24T09:08:45.053Z,8.50
2022-11-24T09:09:45.035Z,8.48
2022-11-24T09:10:45.068Z,8.55
2022-11-24T09:11:45.031Z,8.55
2022-11-24T09:12:45.089Z,8.48
2022-11-24T09:13:44.997Z,8.54
2022-11-24T09:14:44.999Z,8.51
2022-11-24T09:15:45.030Z,8.58
2022-11-24T09:16:44.953Z,8.58
2022-11-24T09:17:44.929Z,8.69
2022-11-24T09:18:45.010Z,8.68
2022-11-24T09:19:44.984Z,8.72
2022-11-24T09:20:44.959Z,8.63
2022-11-24T09:21:44.863Z,8.65
2022-11-24T09:22:44.858Z,8.78
2022-11-24T09:23:44.796Z,8.75
2022-11-24T09:24:44.828Z,8.76
2022-11-24T09:25:44.942Z,8.73
2022-11-24T09:26:47.632Z,8.75
2022-11-24T09:27:45.807Z,8.75
2022-11-24T09:28:44.843Z,8.71
2022-11-24T09:29:44.900Z,8.75
2022-11-24T09:30:44.892Z,8.75
2022-11-24T09:31:44.864Z,8.73
2022-11-24T09:32:44.932Z,8.87
2022-11-24T09:33:44.851Z,8.91
2022-11-24T09:34:44.825Z,8.88
2022-11-24T09:35:44.861Z,8.96
2022-11-24T09:36:44.852Z,8.99
2022-11-24T09:37:44.923Z,8.93
2022-11-24T09:38:44.794Z,8.96
2022-11-24T09:39:44.808Z,8.97
2022-11-24T09:40:44.818Z,8.96
2022-11-24T09:41:44.791Z,9.05
2022-11-24T09:42:49.293Z,9.01
2022-11-24T09:43:46.050Z,9.05
2022-11-24T09:44:44.805Z,8.99
2022-11-24T09:46:06.664Z,9.20
2022-11-24T09:46:46.671Z,8.91
2022-11-24T09:47:44.653Z,8.99
2022-11-24T09:48:45.891Z,9.05
2022-11-24T09:49:49.837Z,9.02
2022-11-24T09:50:46.593Z,9.09
2022-11-24T09:51:44.698Z,9.02
2022-11-24T09:52:44.702Z,9.13
2022-11-24T09:53:44.698Z,9.18
2022-11-24T09:54:44.702Z,9.09
2022-11-24T09:55:44.665Z,9.25
2022-11-24T09:56:44.709Z,9.28
2022-11-24T09:57:44.658Z,9.21
2022-11-24T09:58:44.695Z,9.18
2022-11-24T09:59:44.680Z,9.15
2022-11-24T10:00:44.646Z,9.23
2022-11-24T10:01:44.711Z,9.12
2022-11-24T10:02:44.653Z,9.18
2022-11-24T10:03:44.710Z,9.01
2022-11-24T10:04:44.703Z,9.12
2022-11-24T10:05:44.811Z,9.04
2022-11-24T10:06:44.651Z,9.23
2022-11-24T10:07:44.576Z,9.05
2022-11-24T10:08:44.517Z,9.16
2022-11-24T10:09:44.508Z,9.24
2022-11-24T10:10:44.559Z,9.30
2022-11-24T10:11:44.587Z,9.28
2022-11-24T10:12:44.600Z,9.28
2022-11-24T10:13:44.545Z,9.25
2022-11-24T10:14:44.566Z,9.38
2022-11-24T10:15:44.703Z,9.53
2022-11-24T10:16:44.593Z,9.53
2022-11-24T10:17:44.568Z,9.67
2022-11-24T10:18:44.608Z,9.58
2022-11-24T10:19:44.603Z,9.58
2022-11-24T10:20:44.553Z,9.68
2022-11-24T10:21:44.578Z,9.75
2022-11-24T10:22:44.491Z,9.60
2022-11-24T10:23:44.467Z,9.76
2022-11-24T10:24:44.540Z,9.75
2022-11-24T10:25:44.426Z,9.68
2022-11-24T10:26:44.444Z,9.75
2022-11-24T10:27:44.486Z,9.73
2022-11-24T10:28:44.581Z,9.82
2022-11-24T10:29:44.502Z,9.71
2022-11-24T10:30:44.593Z,9.83
2022-11-24T10:31:44.501Z,9.91
2022-11-24T10:32:44.493Z,10.12
2022-11-24T10:33:44.451Z,10.09
2022-11-24T10:34:44.449Z,10.01
2022-11-24T10:35:44.475Z,10.10
2022-11-24T10:36:44.438Z,10.12
2022-11-24T10:37:44.475Z,10.17
2022-11-24T10:38:44.441Z,10.07
2022-11-24T10:39:44.367Z,10.18
2022-11-24T10:40:59.763Z,10.14
2022-11-24T10:41:46.385Z,10.00
2022-11-24T10:42:44.381Z,10.06
2022-11-24T10:43:44.538Z,10.09
2022-11-24T10:44:44.322Z,10.10
2022-11-24T10:45:44.393Z,10.10
2022-11-24T10:46:44.466Z,10.22
2022-11-24T10:47:44.273Z,10.10
2022-11-24T10:48:44.366Z,10.10
2022-11-24T10:49:44.369Z,10.12
2022-11-24T10:50:44.298Z,10.14
2022-11-24T10:51:44.345Z,10.07
2022-11-24T10:52:44.314Z,10.12
2022-11-24T10:53:44.443Z,10.09
2022-11-24T10:54:44.359Z,10.10
2022-11-24T10:55:44.320Z,10.10
2022-11-24T10:56:44.284Z,10.18
2022-11-24T10:57:44.308Z,10.24
2022-11-24T10:58:44.239Z,10.22
2022-11-24T10:59:44.281Z,10.32
2022-11-24T11:00:44.271Z,10.43
2022-11-24T11:01:44.301Z,10.46
2022-11-24T11:02:44.294Z,10.43
2022-11-24T11:03:44.232Z,10.58
2022-11-24T11:04:44.253Z,10.62
2022-11-24T11:05:44.234Z,10.58
2022-11-24T11:06:44.124Z,10.70
2022-11-24T11:07:44.165Z,10.68
2022-11-24T11:08:44.192Z,10.63
2022-11-24T11:09:44.131Z,10.62
2022-11-24T11:10:44.150Z,10.58
2022-11-24T11:11:44.099Z,10.55
2022-11-24T11:12:45.192Z,10.59
2022-11-24T11:13:45.130Z,10.58
2022-11-24T11:14:44.059Z,10.63
2022-11-24T11:15:44.279Z,10.70
2022-11-24T11:16:44.132Z,10.80
2022-11-24T11:17:44.154Z,10.92
2022-11-24T11:18:44.258Z,10.89
2022-11-24T11:19:54.222Z,10.84
2022-11-24T11:20:46.106Z,11.01
2022-11-24T11:21:44.181Z,10.98
2022-11-24T11:22:44.138Z,11.11
2022-11-24T11:23:44.138Z,11.06
2022-11-24T11:24:44.078Z,10.94
2022-11-24T11:25:44.157Z,10.99
2022-11-24T11:26:45.139Z,11.03
2022-11-24T11:27:44.144Z,11.19
2022-11-24T11:28:44.108Z,11.19
2022-11-24T11:34:02.866Z,11.07
2022-11-24T11:34:03.405Z,11.10
2022-11-24T11:34:45.947Z,11.06
2022-11-24T11:35:43.970Z,11.25
2022-11-24T11:36:43.948Z,11.46
2022-11-24T11:37:43.964Z,11.46
2022-11-24T11:38:43.899Z,11.49
2022-11-24T11:39:48.399Z,11.47
2022-11-24T11:40:46.392Z,11.43
2022-11-24T11:41:43.921Z,11.43
2022-11-24T11:43:01.959Z,11.27
2022-11-24T11:43:45.886Z,11.11
2022-11-24T11:44:44.045Z,11.16
2022-11-24T11:45:44.016Z,11.16
2022-11-24T11:46:43.996Z,11.11
2022-11-24T11:47:43.962Z,11.19
2022-11-24T11:48:44.308Z,11.27
2022-11-24T11:49:43.963Z,11.14
2022-11-24T11:51:15.017Z,11.14
2022-11-24T11:51:45.840Z,11.03
2022-11-24T11:52:43.902Z,11.01
2022-11-24T11:53:43.962Z,10.99
2022-11-24T11:54:43.909Z,10.89
2022-11-24T11:55:49.476Z,10.68
2022-11-24T11:56:45.861Z,10.62
2022-11-24T11:57:43.882Z,10.66
2022-11-24T11:58:44.277Z,10.56
2022-11-24T11:59:43.698Z,10.63
2022-11-24T12:00:43.944Z,10.80
2022-11-24T12:01:43.729Z,10.89
2022-11-24T12:02:47.263Z,10.89
2022-11-24T12:03:46.047Z,10.83
2022-11-24T12:04:43.737Z,10.96
2022-11-24T12:05:43.814Z,10.95
2022-11-24T12:06:43.763Z,10.96
2022-11-24T12:07:44.679Z,10.98
2022-11-24T12:09:11.663Z,10.84
2022-11-24T12:09:45.957Z,10.80
2022-11-24T12:10:44.615Z,10.77
2022-11-24T12:11:46.235Z,10.66
2022-11-24T12:12:43.764Z,10.63
2022-11-24T12:13:43.832Z,10.65
2022-11-24T12:14:43.773Z,10.78
2022-11-24T12:15:43.793Z,10.95
2022-11-24T12:16:43.690Z,11.07
2022-11-24T12:17:43.785Z,11.10
2022-11-24T12:18:59.272Z,11.27
2022-11-24T12:19:45.626Z,11.29
2022-11-24T12:20:43.572Z,11.44
2022-11-24T12:21:43.726Z,11.44
2022-11-24T12:22:43.509Z,11.36
2022-11-24T12:23:43.574Z,11.34
2022-11-24T12:24:43.641Z,11.39
2022-11-24T12:25:43.675Z,11.32
2022-11-24T12:26:44.635Z,11.38
2022-11-24T12:27:43.643Z,11.49
2022-11-24T12:28:43.623Z,11.39
2022-11-24T12:29:43.603Z,11.52
2022-11-24T12:30:43.620Z,11.52
2022-11-24T12:31:43.614Z,11.61
2022-11-24T12:32:43.600Z,11.41
2022-11-24T12:33:50.485Z,11.49
2022-11-24T12:34:45.605Z,11.17
2022-11-24T12:35:44.607Z,11.20
2022-11-24T12:36:43.560Z,11.07
2022-11-24T12:37:43.538Z,10.96
2022-11-24T12:38:43.578Z,10.83
2022-11-24T12:39:43.540Z,10.81
2022-11-24T12:40:46.895Z,10.81
2022-11-24T12:41:44.604Z,10.83
2022-11-24T12:42:43.479Z,10.89
2022-11-24T12:43:43.491Z,10.83
2022-11-24T12:44:43.601Z,10.81
2022-11-24T12:45:43.516Z,10.83
2022-11-24T12:46:43.381Z,10.88
2022-11-24T12:47:43.388Z,10.76
2022-11-24T12:48:43.369Z,10.76
2022-11-24T12:49:43.329Z,10.83
2022-11-24T12:50:43.287Z,10.78
2022-11-24T12:51:43.476Z,10.73
2022-11-24T12:52:43.865Z,10.78
2022-11-24T12:53:43.368Z,10.80
2022-11-24T12:54:43.398Z,10.81
2022-11-24T12:55:43.410Z,10.84
2022-11-24T12:56:43.381Z,10.99
2022-11-24T12:57:43.375Z,11.02
2022-11-24T12:58:43.407Z,11.10
2022-11-24T12:59:43.377Z,11.07
2022-11-24T13:00:43.368Z,11.03
2022-11-24T13:01:43.481Z,10.96
2022-11-24T13:02:43.420Z,11.03
2022-11-24T13:03:43.271Z,10.98
2022-11-24T13:04:43.457Z,11.07
2022-11-24T13:05:43.400Z,10.91
2022-11-24T13:06:49.017Z,10.96
2022-11-24T13:07:45.517Z,11.11
2022-11-24T13:08:43.379Z,11.06
2022-11-24T13:09:43.291Z,11.01
2022-11-24T13:10:58.570Z,11.03
2022-11-24T13:11:45.358Z,11.03
2022-11-24T13:12:43.181Z,10.99
2022-11-24T13:13:43.203Z,10.92
2022-11-24T13:14:43.379Z,10.99
2022-11-24T13:15:46.139Z,11.14
2022-11-24T13:18:05.093Z,11.03